Time;durP1;ratioP1;P1;durP2;ratioP2;P2;SDS_P1;SDS_P2;PMS_P1;PMS_P2;Temp;Humidity;BMP_temperature;BMP_pressure;BME280_temperature;BME280_humidity;BME280_pressure;Samples;Min_cycle;Max_cycle;Signal;HPM_P1;HPM_P2
2022/03/09 00:01:15;;;;;;;145.60;81.72;;;5.20;91.50;;;;;;5018027;28;20030;-72
2022/03/09 00:03:41;;;;;;;17.17;10.10;;;5.20;91.50;;;;;;5015651;28;20436;-72
2022/03/09 00:06:06;;;;;;;8.48;5.13;;;5.20;91.60;;;;;;5017793;28;20380;-71
2022/03/09 00:08:32;;;;;;;7.68;4.45;;;5.20;92.30;;;;;;5018679;28;20479;-72
2022/03/09 00:10:58;;;;;;;7.07;3.95;;;5.20;92.10;;;;;;5023803;28;20034;-72
2022/03/09 00:13:23;;;;;;;5.25;3.40;;;5.20;92.20;;;;;;5018019;28;20026;-72
2022/03/09 00:15:49;;;;;;;7.85;4.22;;;5.20;92.30;;;;;;5030639;28;20473;-72
2022/03/09 00:18:14;;;;;;;11.63;3.47;;;5.10;92.70;;;;;;5017669;28;20029;-72
2022/03/09 00:20:40;;;;;;;6.10;3.78;;;5.10;92.90;;;;;;5017350;28;20491;-72
2022/03/09 00:23:06;;;;;;;6.82;3.30;;;5.10;93.00;;;;;;5019987;28;20488;-72
2022/03/09 00:25:32;;;;;;;8.25;3.97;;;5.10;93.10;;;;;;5018312;28;20021;-72
2022/03/09 00:27:57;;;;;;;7.28;3.78;;;5.10;93.40;;;;;;5019355;28;20033;-72
2022/03/09 00:30:23;;;;;;;8.00;4.00;;;5.10;93.50;;;;;;5017203;28;20491;-72
2022/03/09 00:32:49;;;;;;;6.80;3.35;;;5.10;93.70;;;;;;5014097;28;20100;-72
2022/03/09 00:35:15;;;;;;;6.60;3.75;;;5.10;93.60;;;;;;5019092;28;20160;-72
2022/03/09 00:37:41;;;;;;;8.95;3.70;;;5.00;94.10;;;;;;5015791;28;20026;-72
2022/03/09 00:40:07;;;;;;;6.13;3.70;;;5.00;94.10;;;;;;5017894;28;20557;-72
2022/03/09 00:42:37;;;;;;;7.20;3.65;;;5.00;94.40;;;;;;5016346;28;20034;-73
2022/03/09 00:45:04;;;;;;;7.13;3.80;;;5.00;94.50;;;;;;5018714;28;20426;-72
2022/03/09 00:47:30;;;;;;;6.97;3.60;;;5.00;94.90;;;;;;5018342;28;20033;-72
2022/03/09 00:49:56;;;;;;;6.65;3.90;;;5.00;95.00;;;;;;5019831;28;20600;-72
2022/03/09 00:52:22;;;;;;;7.45;3.88;;;5.00;95.00;;;;;;5019561;28;20112;-72
2022/03/09 00:54:48;;;;;;;7.13;3.95;;;4.90;95.20;;;;;;5020929;28;20021;-72
2022/03/09 00:57:15;;;;;;;6.88;3.47;;;4.80;95.20;;;;;;5019854;28;20517;-72
2022/03/09 00:59:41;;;;;;;7.65;3.92;;;4.80;95.70;;;;;;5021864;28;20034;-72
2022/03/09 01:02:07;;;;;;;7.22;3.70;;;4.80;95.90;;;;;;5015900;28;20026;-72
2022/03/09 01:04:34;;;;;;;7.35;3.63;;;4.80;96.00;;;;;;5022767;28;20044;-72
2022/03/09 01:07:01;;;;;;;7.82;3.67;;;4.90;96.10;;;;;;5017303;28;20402;-72
2022/03/09 01:09:26;;;;;;;5.93;3.28;;;4.80;96.10;;;;;;5020893;28;20065;-72
2022/03/09 01:11:52;;;;;;;8.77;3.60;;;4.80;96.40;;;;;;5020034;28;20116;-72
2022/03/09 01:14:18;;;;;;;6.18;3.38;;;4.80;96.20;;;;;;5033185;28;20068;-72
2022/03/09 01:16:44;;;;;;;7.68;3.55;;;4.70;96.40;;;;;;5018380;28;20037;-72
2022/03/09 01:19:09;;;;;;;6.43;3.58;;;4.70;96.80;;;;;;5020475;28;20045;-71
2022/03/09 01:21:35;;;;;;;6.65;3.55;;;4.60;96.80;;;;;;5020540;28;20487;-72
2022/03/09 01:24:01;;;;;;;6.00;3.63;;;4.60;97.00;;;;;;5019698;28;20372;-72
2022/03/09 01:26:27;;;;;;;7.93;3.47;;;4.60;97.10;;;;;;5021491;28;20092;-72
2022/03/09 01:28:53;;;;;;;7.03;3.28;;;4.60;97.40;;;;;;5020036;28;20029;-72
2022/03/09 01:31:19;;;;;;;6.90;3.28;;;4.60;97.90;;;;;;5017603;28;20026;-72
2022/03/09 01:33:44;;;;;;;6.28;3.25;;;4.50;97.50;;;;;;5017222;28;20057;-72
2022/03/09 01:36:10;;;;;;;7.43;3.58;;;4.60;97.70;;;;;;5019186;28;20068;-71
2022/03/09 01:38:36;;;;;;;8.10;3.53;;;4.60;98.10;;;;;;5020169;28;20057;-72
2022/03/09 01:41:02;;;;;;;6.72;3.20;;;4.60;98.10;;;;;;5019493;28;20618;-71
2022/03/09 01:43:27;;;;;;;6.47;3.88;;;4.60;98.00;;;;;;5018794;28;20022;-72
2022/03/09 01:45:53;;;;;;;10.18;3.75;;;4.50;98.30;;;;;;5019651;28;20561;-72
2022/03/09 01:48:19;;;;;;;4.93;3.03;;;4.50;98.40;;;;;;5021122;28;20065;-72
2022/03/09 01:50:46;;;;;;;8.30;3.50;;;4.50;98.70;;;;;;5017230;28;20030;-72
2022/03/09 01:53:11;;;;;;;7.20;3.47;;;4.50;98.90;;;;;;5033440;28;20038;-72
2022/03/09 01:55:38;;;;;;;7.82;3.45;;;4.50;98.60;;;;;;5018614;28;20025;-72
2022/03/09 01:58:04;;;;;;;6.15;3.53;;;4.50;98.70;;;;;;5023253;28;20038;-72
2022/03/09 02:00:29;;;;;;;6.95;3.42;;;4.40;99.10;;;;;;5025709;28;20057;-72
2022/03/09 02:02:55;;;;;;;8.52;3.22;;;4.40;99.30;;;;;;5017980;28;20036;-72
2022/03/09 02:05:21;;;;;;;5.65;3.28;;;4.40;99.60;;;;;;5019887;28;20495;-72
2022/03/09 02:10:31;;;;;;;7.25;3.55;;;4.30;99.70;;;;;;5021709;28;20041;-72
2022/03/09 02:12:56;;;;;;;7.63;4.25;;;4.20;99.90;;;;;;5018747;28;20029;-72
2022/03/09 02:15:22;;;;;;;5.85;3.25;;;4.30;99.90;;;;;;5019199;28;20563;-72
2022/03/09 02:17:48;;;;;;;7.80;3.55;;;4.30;99.90;;;;;;5018270;28;20101;-73
2022/03/09 02:20:14;;;;;;;6.78;3.50;;;4.30;99.90;;;;;;5017311;28;20041;-72
2022/03/09 02:22:41;;;;;;;8.48;4.10;;;4.20;99.90;;;;;;5016382;28;20033;-72
2022/03/09 02:25:15;;;;;;;6.28;3.90;;;4.20;99.90;;;;;;5018530;28;20065;-72
2022/03/09 02:27:42;;;;;;;6.35;3.63;;;4.20;99.90;;;;;;5018535;28;20084;-72
2022/03/09 02:30:10;;;;;;;5.93;3.58;;;4.20;99.90;;;;;;5016655;28;20061;-72
2022/03/09 02:32:44;;;;;;;7.70;3.88;;;4.20;99.90;;;;;;5017712;28;20033;-72
2022/03/09 02:35:11;;;;;;;6.32;3.38;;;4.20;99.90;;;;;;5035558;28;20080;-73
2022/03/09 02:37:41;;;;;;;6.82;3.75;;;4.20;99.90;;;;;;5019899;28;20022;-72
2022/03/09 02:40:09;;;;;;;7.75;3.97;;;4.10;99.90;;;;;;5014126;28;20408;-72
2022/03/09 02:42:35;;;;;;;7.93;4.20;;;4.10;99.90;;;;;;5016678;28;20032;-72
2022/03/09 02:45:02;;;;;;;7.13;4.13;;;4.10;99.90;;;;;;5019635;28;20112;-72
2022/03/09 02:47:27;;;;;;;7.13;4.20;;;4.00;99.90;;;;;;5017499;28;20449;-72
2022/03/09 02:49:53;;;;;;;7.07;4.05;;;4.00;99.90;;;;;;5025340;28;20125;-72
2022/03/09 02:52:18;;;;;;;6.30;3.70;;;4.00;99.90;;;;;;5019572;28;20044;-72
2022/03/09 02:54:44;;;;;;;8.73;4.22;;;4.00;99.90;;;;;;5017020;28;20041;-72
2022/03/09 02:57:10;;;;;;;5.97;3.85;;;4.00;99.90;;;;;;5018943;28;20487;-72
2022/03/09 02:59:36;;;;;;;6.63;4.10;;;4.00;99.90;;;;;;5017923;28;20112;-72
2022/03/09 03:02:02;;;;;;;10.32;4.22;;;4.00;99.90;;;;;;5017941;28;20037;-72
2022/03/09 03:04:28;;;;;;;6.88;3.85;;;3.90;99.90;;;;;;5018875;28;20021;-72
2022/03/09 03:06:53;;;;;;;6.93;3.47;;;3.90;99.90;;;;;;5019633;28;20474;-72
2022/03/09 03:09:19;;;;;;;9.13;5.07;;;3.90;99.90;;;;;;5015971;28;20026;-72
2022/03/09 03:11:46;;;;;;;8.48;4.32;;;3.90;99.90;;;;;;5019598;28;20022;-73
2022/03/09 03:14:12;;;;;;;7.95;4.15;;;3.90;99.90;;;;;;5036592;28;20058;-72
2022/03/09 03:16:37;;;;;;;9.40;4.22;;;3.90;99.90;;;;;;5028422;28;20029;-71
2022/03/09 03:19:03;;;;;;;8.05;4.25;;;3.80;99.90;;;;;;5000724;28;20040;-71
2022/03/09 03:21:29;;;;;;;8.10;3.60;;;3.80;99.90;;;;;;5020155;28;20033;-71
2022/03/09 03:23:55;;;;;;;8.20;4.15;;;3.70;99.90;;;;;;5017579;28;20113;-71
2022/03/09 03:26:20;;;;;;;9.80;5.03;;;3.70;99.90;;;;;;5016558;28;20053;-73
2022/03/09 03:28:46;;;;;;;8.43;4.35;;;3.70;99.90;;;;;;5014509;28;20030;-73
2022/03/09 03:31:14;;;;;;;7.15;3.75;;;3.80;99.90;;;;;;5019236;28;20501;-73
2022/03/09 03:33:40;;;;;;;7.20;4.13;;;3.80;99.90;;;;;;5016888;28;20018;-73
2022/03/09 03:36:06;;;;;;;7.05;4.13;;;3.70;99.90;;;;;;5018349;28;20088;-72
2022/03/09 03:38:31;;;;;;;8.38;4.43;;;3.80;99.90;;;;;;5015823;28;20519;-73
2022/03/09 03:40:57;;;;;;;8.55;5.00;;;3.70;99.90;;;;;;5018885;28;20060;-73
2022/03/09 03:43:22;;;;;;;8.30;4.65;;;3.70;99.90;;;;;;5012970;28;20048;-72
2022/03/09 03:45:48;;;;;;;11.70;4.75;;;3.70;99.90;;;;;;5015496;28;20026;-71
2022/03/09 03:48:13;;;;;;;11.00;5.28;;;3.70;99.90;;;;;;5018392;28;20030;-72
2022/03/09 03:50:39;;;;;;;8.48;4.47;;;3.60;99.90;;;;;;5015013;28;20061;-72
2022/03/09 03:53:05;;;;;;;11.35;4.95;;;3.60;99.90;;;;;;5015801;28;20026;-71
2022/03/09 03:55:31;;;;;;;8.40;5.07;;;3.60;99.90;;;;;;5017290;28;20041;-72
2022/03/09 03:57:56;;;;;;;9.35;5.07;;;3.60;99.90;;;;;;5017873;28;20197;-72
2022/03/09 04:00:23;;;;;;;8.85;4.60;;;3.50;99.90;;;;;;5016888;28;20041;-73
2022/03/09 04:02:50;;;;;;;10.70;4.53;;;3.50;99.90;;;;;;5014408;28;20029;-72
2022/03/09 04:05:16;;;;;;;8.75;4.88;;;3.60;99.90;;;;;;5034501;28;20045;-71
2022/03/09 04:07:42;;;;;;;11.93;4.88;;;3.60;99.90;;;;;;5020846;28;20022;-73
2022/03/09 04:10:07;;;;;;;8.95;4.68;;;3.60;99.90;;;;;;5018005;28;20116;-73
2022/03/09 04:12:34;;;;;;;8.50;4.22;;;3.60;99.90;;;;;;5023692;28;20480;-72
2022/03/09 04:14:59;;;;;;;8.65;4.35;;;3.50;99.90;;;;;;5015138;28;20030;-71
2022/03/09 04:17:25;;;;;;;8.40;4.45;;;3.50;99.90;;;;;;5016743;28;20091;-73
2022/03/09 04:19:51;;;;;;;7.20;4.18;;;3.50;99.90;;;;;;5020867;28;20112;-74
2022/03/09 04:22:16;;;;;;;9.90;4.25;;;3.50;99.90;;;;;;5023055;28;20113;-71
2022/03/09 04:24:42;;;;;;;7.97;4.10;;;3.50;99.90;;;;;;5020553;28;20447;-72
2022/03/09 04:27:07;;;;;;;10.18;4.53;;;3.50;99.90;;;;;;5020251;28;20029;-73
2022/03/09 04:29:33;;;;;;;8.40;4.28;;;3.50;99.90;;;;;;5022176;28;20037;-72
2022/03/09 04:31:59;;;;;;;9.27;4.97;;;3.50;99.90;;;;;;5021182;28;20030;-72
2022/03/09 04:34:24;;;;;;;8.93;4.70;;;3.50;99.90;;;;;;5015627;28;20037;-72
2022/03/09 04:36:50;;;;;;;9.73;4.55;;;3.40;99.90;;;;;;5021135;28;20037;-73
2022/03/09 04:39:16;;;;;;;9.05;4.28;;;3.40;99.90;;;;;;5020304;28;20030;-73
2022/03/09 04:41:42;;;;;;;10.30;4.68;;;3.40;99.90;;;;;;5020815;28;20029;-73
2022/03/09 04:44:08;;;;;;;9.88;5.15;;;3.40;99.90;;;;;;5020554;28;20037;-72
2022/03/09 04:46:33;;;;;;;9.10;5.32;;;3.40;99.90;;;;;;5018906;28;20029;-72
2022/03/09 04:48:59;;;;;;;9.45;4.47;;;3.40;99.90;;;;;;5019904;28;20040;-73
2022/03/09 04:51:25;;;;;;;7.82;4.10;;;3.40;99.90;;;;;;5019968;28;20518;-73
2022/03/09 04:53:51;;;;;;;10.23;5.22;;;3.40;99.90;;;;;;5024368;28;20034;-73
2022/03/09 04:56:17;;;;;;;8.65;4.32;;;3.40;99.90;;;;;;5022290;28;20034;-73
2022/03/09 04:58:43;;;;;;;9.07;4.65;;;3.40;99.90;;;;;;5019431;28;20033;-73
2022/03/09 05:01:08;;;;;;;8.38;5.13;;;3.40;99.90;;;;;;5020180;28;20026;-72
2022/03/09 05:03:34;;;;;;;8.35;4.68;;;3.40;99.90;;;;;;5016499;28;20053;-74
2022/03/09 05:06:03;;;;;;;7.50;4.63;;;3.40;99.90;;;;;;5021230;28;20581;-73
2022/03/09 05:08:29;;;;;;;9.00;4.85;;;3.30;99.90;;;;;;5001772;28;20037;-73
2022/03/09 05:10:54;;;;;;;8.25;4.82;;;3.40;99.90;;;;;;5021277;28;20106;-74
2022/03/09 05:13:20;;;;;;;8.32;4.85;;;3.30;99.90;;;;;;5021423;28;20022;-73
2022/03/09 05:15:46;;;;;;;9.80;5.00;;;3.30;99.90;;;;;;5022407;28;20112;-73
2022/03/09 05:18:13;;;;;;;11.80;5.07;;;3.20;99.90;;;;;;5021498;28;20032;-73
2022/03/09 05:20:39;;;;;;;10.85;4.60;;;3.20;99.90;;;;;;5021736;28;20398;-72
2022/03/09 05:23:05;;;;;;;7.28;4.50;;;3.20;99.90;;;;;;5018546;28;20053;-72
2022/03/09 05:25:31;;;;;;;9.10;4.75;;;3.20;99.90;;;;;;5026550;28;20091;-72
2022/03/09 05:27:58;;;;;;;8.18;4.47;;;3.20;99.90;;;;;;5016180;28;20117;-74
2022/03/09 05:30:24;;;;;;;10.35;4.88;;;3.10;99.90;;;;;;5021003;28;20182;-72
2022/03/09 05:32:49;;;;;;;8.02;4.47;;;3.20;99.90;;;;;;5016283;28;20645;-72
2022/03/09 05:35:15;;;;;;;7.90;4.38;;;3.10;99.90;;;;;;5024270;28;20032;-73
2022/03/09 05:37:45;;;;;;;8.73;4.45;;;3.10;99.90;;;;;;5020008;28;20108;-73
2022/03/09 05:40:14;;;;;;;7.25;4.38;;;3.10;99.90;;;;;;5019935;28;20069;-72
2022/03/09 05:42:40;;;;;;;8.55;5.07;;;3.10;99.90;;;;;;5017686;28;20033;-72
2022/03/09 05:45:06;;;;;;;9.73;5.10;;;3.00;99.90;;;;;;5001255;28;20395;-72
2022/03/09 05:47:32;;;;;;;8.35;4.80;;;3.10;99.90;;;;;;5026354;28;20090;-74
2022/03/09 05:49:58;;;;;;;10.73;4.95;;;3.00;99.90;;;;;;5017512;28;20441;-72
2022/03/09 05:52:24;;;;;;;10.23;5.03;;;3.10;99.90;;;;;;5016447;28;20591;-72
2022/03/09 05:54:49;;;;;;;10.43;5.80;;;3.00;99.90;;;;;;5020513;28;20025;-71
2022/03/09 05:57:20;;;;;;;11.10;5.85;;;3.00;99.90;;;;;;5018266;28;20033;-72
2022/03/09 05:59:45;;;;;;;12.77;5.83;;;3.00;99.90;;;;;;5016075;28;20300;-75
2022/03/09 06:02:11;;;;;;;12.43;6.47;;;3.00;99.90;;;;;;5016076;28;20287;-74
2022/03/09 06:04:37;;;;;;;12.98;6.88;;;3.00;99.90;;;;;;5016021;28;20026;-73
2022/03/09 06:07:03;;;;;;;11.18;6.50;;;3.00;99.90;;;;;;5017424;28;20034;-72
2022/03/09 06:09:29;;;;;;;14.15;5.90;;;3.00;99.90;;;;;;5016865;28;20145;-72
2022/03/09 06:11:56;;;;;;;11.23;5.97;;;3.00;99.90;;;;;;5017059;28;20133;-74
2022/03/09 06:14:22;;;;;;;13.13;6.57;;;3.00;99.90;;;;;;5018535;28;20491;-74
2022/03/09 06:16:47;;;;;;;11.68;5.72;;;3.00;99.90;;;;;;5017745;28;20065;-70
2022/03/09 06:19:17;;;;;;;11.38;5.85;;;3.00;99.90;;;;;;5019082;28;20033;-70
2022/03/09 06:21:43;;;;;;;12.48;5.88;;;3.00;99.90;;;;;;5028200;28;20107;-70
2022/03/09 06:24:09;;;;;;;10.18;5.20;;;3.00;99.90;;;;;;5020178;28;20316;-70
2022/03/09 06:26:38;;;;;;;9.68;5.05;;;3.00;99.90;;;;;;5009103;28;20029;-70
2022/03/09 06:29:05;;;;;;;11.75;5.35;;;3.10;99.90;;;;;;5012071;28;20184;-71
2022/03/09 06:31:31;;;;;;;12.80;5.95;;;3.10;99.90;;;;;;5009218;28;20083;-70
2022/03/09 06:33:56;;;;;;;11.13;5.78;;;3.10;99.90;;;;;;5008860;28;20030;-70
2022/03/09 06:36:22;;;;;;;10.10;5.15;;;3.10;99.90;;;;;;5011474;28;20056;-71
2022/03/09 06:38:48;;;;;;;12.95;6.05;;;3.20;99.90;;;;;;5011106;28;20022;-71
2022/03/09 06:41:13;;;;;;;11.00;5.43;;;3.20;99.90;;;;;;5011711;28;20025;-71
2022/03/09 06:43:39;;;;;;;10.63;5.40;;;3.20;99.90;;;;;;5009766;28;20030;-70
2022/03/09 06:46:05;;;;;;;10.50;5.00;;;3.30;99.90;;;;;;5014200;28;20510;-74
2022/03/09 06:48:31;;;;;;;11.23;5.35;;;3.30;99.90;;;;;;5005172;28;20083;-72
2022/03/09 06:50:56;;;;;;;10.05;5.25;;;3.30;99.90;;;;;;5005498;28;20030;-70
2022/03/09 06:53:22;;;;;;;14.90;5.30;;;3.40;99.90;;;;;;5005491;28;20037;-70
2022/03/09 06:55:48;;;;;;;11.60;5.60;;;3.40;99.90;;;;;;5007062;28;20202;-70
2022/03/09 06:58:13;;;;;;;17.85;6.07;;;3.40;99.90;;;;;;5004353;28;20558;-70
2022/03/09 07:00:39;;;;;;;15.07;6.45;;;3.50;99.90;;;;;;5008537;28;20495;-70
2022/03/09 07:03:05;;;;;;;12.52;6.63;;;3.50;99.90;;;;;;5011832;28;20447;-68
2022/03/09 07:05:34;;;;;;;9.45;5.68;;;3.40;99.90;;;;;;5005450;28;20132;-72
2022/03/09 07:08:00;;;;;;;11.48;5.60;;;3.50;99.90;;;;;;5010649;28;20495;-69
2022/03/09 07:10:26;;;;;;;11.98;5.57;;;3.50;99.90;;;;;;4992410;28;20052;-69
2022/03/09 07:12:53;;;;;;;12.00;6.68;;;3.50;99.90;;;;;;5009369;28;20083;-71
2022/03/09 07:15:19;;;;;;;13.10;5.78;;;3.60;99.90;;;;;;5008845;28;20476;-70
2022/03/09 07:17:47;;;;;;;14.13;5.70;;;3.60;99.90;;;;;;5007580;28;20038;-69
2022/03/09 07:20:14;;;;;;;14.57;5.65;;;3.70;99.90;;;;;;5011385;28;20031;-71
2022/03/09 07:22:42;;;;;;;12.63;5.65;;;3.70;99.90;;;;;;5012212;28;20050;-70
2022/03/09 07:25:12;;;;;;;14.60;5.60;;;3.70;99.90;;;;;;5012713;28;20029;-70
2022/03/09 07:27:39;;;;;;;12.45;5.68;;;3.70;99.90;;;;;;5011509;28;20030;-70
2022/03/09 07:30:06;;;;;;;11.60;5.93;;;3.80;99.90;;;;;;5012107;28;20395;-70
2022/03/09 07:32:32;;;;;;;12.15;6.22;;;3.90;99.90;;;;;;5017569;28;20029;-70
2022/03/09 07:34:58;;;;;;;13.38;6.22;;;3.90;99.90;;;;;;5010872;28;20053;-70
2022/03/09 07:37:23;;;;;;;15.13;6.35;;;3.90;99.90;;;;;;5010520;28;20107;-70
2022/03/09 07:39:49;;;;;;;18.58;6.53;;;3.90;99.90;;;;;;5008772;28;20034;-70
2022/03/09 07:42:15;;;;;;;10.10;5.68;;;4.00;99.90;;;;;;5018575;28;20029;-69
2022/03/09 07:44:41;;;;;;;14.27;6.13;;;4.00;99.90;;;;;;5011956;28;20030;-69
2022/03/09 07:47:07;;;;;;;12.52;6.13;;;4.00;99.90;;;;;;5008193;28;20044;-73
2022/03/09 07:49:33;;;;;;;17.27;6.80;;;4.10;99.90;;;;;;5007181;28;20120;-69
2022/03/09 07:52:00;;;;;;;13.27;5.75;;;4.10;99.90;;;;;;4992915;28;20026;-68
2022/03/09 07:54:27;;;;;;;13.40;5.65;;;4.20;99.90;;;;;;5012737;28;20033;-69
2022/03/09 07:56:53;;;;;;;12.30;6.28;;;4.20;99.90;;;;;;5015915;28;20064;-68
2022/03/09 07:59:19;;;;;;;12.27;5.82;;;4.20;99.90;;;;;;5005073;28;20046;-69
2022/03/09 08:01:45;;;;;;;14.38;5.40;;;4.30;99.90;;;;;;5013061;28;20029;-69
2022/03/09 08:04:10;;;;;;;19.50;6.20;;;4.30;99.90;;;;;;5016132;28;20041;-71
2022/03/09 08:06:37;;;;;;;16.73;5.93;;;4.30;99.90;;;;;;5024182;28;20086;-69
2022/03/09 08:09:04;;;;;;;11.70;5.38;;;4.40;99.90;;;;;;5018587;28;20038;-68
2022/03/09 08:11:30;;;;;;;10.40;5.30;;;4.40;99.90;;;;;;5015140;28;20030;-68
2022/03/09 08:13:57;;;;;;;15.15;6.20;;;4.40;99.90;;;;;;5013498;28;20032;-70
2022/03/09 08:16:23;;;;;;;12.80;5.53;;;4.50;99.90;;;;;;5016589;28;20033;-70
2022/03/09 08:18:48;;;;;;;11.07;5.30;;;4.50;99.90;;;;;;5015737;28;20032;-69
2022/03/09 08:21:14;;;;;;;12.43;5.60;;;4.50;99.90;;;;;;5015905;28;20026;-69
2022/03/09 08:23:40;;;;;;;12.10;5.47;;;4.60;99.90;;;;;;5007371;28;20030;-70
2022/03/09 08:26:06;;;;;;;12.38;6.28;;;4.60;99.00;;;;;;5013566;28;20486;-69
2022/03/09 08:28:31;;;;;;;12.13;5.38;;;4.70;99.20;;;;;;5013868;28;20058;-69
2022/03/09 08:30:57;;;;;;;14.18;5.53;;;4.70;99.00;;;;;;5013404;28;20053;-71
2022/03/09 08:33:22;;;;;;;13.20;5.53;;;4.70;99.20;;;;;;5016208;28;20022;-71
2022/03/09 08:35:49;;;;;;;14.32;5.60;;;4.70;99.20;;;;;;5015637;28;20040;-70
2022/03/09 08:38:15;;;;;;;12.10;5.05;;;4.80;98.80;;;;;;5014867;28;20080;-70
2022/03/09 08:40:41;;;;;;;11.40;5.55;;;4.90;99.80;;;;;;5015006;28;20484;-70
2022/03/09 08:43:07;;;;;;;11.15;5.57;;;4.90;98.80;;;;;;5015479;28;20036;-70
2022/03/09 08:45:33;;;;;;;10.85;5.90;;;5.00;98.20;;;;;;5016245;28;20079;-72
2022/03/09 08:47:58;;;;;;;13.00;5.95;;;5.00;98.00;;;;;;5015761;28;20057;-71
2022/03/09 08:50:25;;;;;;;12.93;6.15;;;5.10;97.70;;;;;;5020608;28;20522;-71
2022/03/09 08:52:51;;;;;;;10.85;5.43;;;5.10;97.10;;;;;;5014453;28;20065;-71
2022/03/09 08:55:17;;;;;;;12.90;5.85;;;5.10;96.90;;;;;;5014204;28;20115;-71
2022/03/09 08:57:42;;;;;;;11.63;5.75;;;5.20;97.00;;;;;;5013558;28;20449;-76
2022/03/09 09:00:09;;;;;;;12.85;5.68;;;5.20;96.30;;;;;;5014496;28;20113;-70
2022/03/09 09:02:35;;;;;;;9.57;5.55;;;5.30;95.40;;;;;;5012771;28;20578;-69
2022/03/09 09:05:02;;;;;;;10.00;5.32;;;5.30;94.10;;;;;;5000214;28;20038;-70
2022/03/09 09:07:28;;;;;;;9.93;5.25;;;5.40;93.30;;;;;;5019321;28;20061;-71
2022/03/09 09:09:55;;;;;;;10.40;5.10;;;5.40;92.90;;;;;;5019723;28;20069;-69
2022/03/09 09:12:20;;;;;;;10.52;6.03;;;5.40;92.70;;;;;;5014029;28;20096;-69
2022/03/09 09:14:46;;;;;;;14.88;5.53;;;5.50;92.10;;;;;;5019778;28;20390;-70
2022/03/09 09:17:12;;;;;;;13.13;6.28;;;5.60;92.10;;;;;;5021302;28;20025;-70
2022/03/09 09:19:38;;;;;;;12.02;6.10;;;5.60;91.30;;;;;;5017223;28;20030;-70
2022/03/09 09:22:04;;;;;;;11.20;5.43;;;5.70;90.90;;;;;;5030932;28;20053;-69
2022/03/09 09:24:30;;;;;;;10.70;5.25;;;5.70;91.00;;;;;;5016438;28;20034;-69
2022/03/09 09:26:56;;;;;;;9.23;5.05;;;5.80;90.50;;;;;;5019801;28;20514;-68
2022/03/09 09:29:22;;;;;;;9.32;4.95;;;5.90;90.00;;;;;;5019615;28;20038;-68
2022/03/09 09:31:49;;;;;;;7.68;4.82;;;5.90;88.30;;;;;;5015862;28;20129;-69
2022/03/09 09:34:19;;;;;;;15.40;5.43;;;6.00;87.20;;;;;;5017882;28;20032;-68
2022/03/09 09:36:46;;;;;;;14.55;5.20;;;6.00;86.20;;;;;;5017964;28;20021;-67
2022/03/09 09:39:13;;;;;;;14.18;5.15;;;6.10;85.50;;;;;;5015963;28;20033;-68
2022/03/09 09:41:42;;;;;;;11.02;5.22;;;6.20;84.30;;;;;;5016633;28;20029;-68
2022/03/09 09:44:10;;;;;;;10.90;5.13;;;6.30;81.70;;;;;;5016319;28;20091;-69
2022/03/09 09:46:39;;;;;;;8.95;4.18;;;6.40;80.50;;;;;;5012814;28;20037;-69
2022/03/09 09:49:07;;;;;;;7.82;4.55;;;6.50;79.50;;;;;;5013557;28;20041;-69
2022/03/09 09:51:37;;;;;;;11.63;5.05;;;6.70;78.50;;;;;;5012245;28;20025;-69
2022/03/09 09:54:05;;;;;;;6.40;4.07;;;6.80;77.10;;;;;;5046107;22;20797;-71
2022/03/09 09:56:31;;;;;;;9.60;4.43;;;7.00;76.20;;;;;;5037386;28;20042;-70
2022/03/09 09:58:57;;;;;;;10.43;4.50;;;7.10;75.80;;;;;;5019749;28;20045;-70
2022/03/09 10:01:23;;;;;;;9.98;5.03;;;7.20;74.80;;;;;;5039914;28;20087;-71
2022/03/09 10:03:49;;;;;;;9.23;5.32;;;7.30;74.10;;;;;;5017620;28;20304;-71
2022/03/09 10:06:14;;;;;;;9.55;5.15;;;7.40;72.90;;;;;;5038102;28;20257;-71
2022/03/09 10:08:40;;;;;;;12.77;5.28;;;7.60;72.30;;;;;;5036147;28;20024;-70
2022/03/09 10:11:06;;;;;;;9.30;5.13;;;7.70;71.90;;;;;;5035665;28;20056;-70
2022/03/09 10:13:35;;;;;;;12.18;5.25;;;7.80;71.40;;;;;;5039423;28;20071;-72
2022/03/09 10:16:20;;;;;;;6.97;4.80;;;7.90;71.40;;;;;;5039755;28;20030;-71
2022/03/09 10:18:50;;;;;;;7.57;5.07;;;8.00;70.70;;;;;;5019730;28;20027;-73
2022/03/09 10:21:20;;;;;;;12.75;5.10;;;8.20;69.80;;;;;;5037430;28;20115;-76
2022/03/09 10:23:57;;;;;;;9.52;4.97;;;8.30;69.80;;;;;;5034183;28;20029;-69
2022/03/09 10:26:24;;;;;;;9.88;5.47;;;8.50;69.70;;;;;;5037850;28;20104;-74
2022/03/09 10:29:02;;;;;;;8.98;5.57;;;8.50;69.00;;;;;;5035992;28;20052;-73
2022/03/09 10:31:36;;;;;;;11.82;5.43;;;8.70;68.20;;;;;;5036120;28;20020;-72
2022/03/09 10:34:06;;;;;;;6.68;4.78;;;8.80;66.50;;;;;;5034748;28;20043;-72
2022/03/09 10:36:31;;;;;;;9.32;5.80;;;8.90;65.60;;;;;;5033848;28;20048;-73
2022/03/09 10:39:15;;;;;;;10.63;5.57;;;9.00;64.20;;;;;;5016977;28;20029;-72
2022/03/09 10:41:41;;;;;;;9.43;6.30;;;9.10;64.10;;;;;;5042450;28;20086;-73
2022/03/09 10:44:07;;;;;;;8.60;5.40;;;9.20;64.20;;;;;;5035236;28;20056;-73
2022/03/09 10:46:42;;;;;;;10.73;5.18;;;9.30;64.00;;;;;;5038220;28;20471;-71
2022/03/09 10:49:08;;;;;;;11.25;6.40;;;9.30;64.30;;;;;;5038629;28;20026;-70
2022/03/09 10:51:36;;;;;;;13.60;6.28;;;9.40;63.60;;;;;;5021008;28;20033;-69
2022/03/09 10:54:08;;;;;;;12.40;5.40;;;9.40;62.90;;;;;;5038941;28;20033;-72
2022/03/09 10:56:35;;;;;;;10.95;6.25;;;9.50;63.20;;;;;;5040012;28;20109;-72
2022/03/09 10:59:20;;;;;;;11.73;5.35;;;9.60;61.80;;;;;;5035488;28;20029;-71
2022/03/09 11:02:09;;;;;;;10.77;5.43;;;9.60;61.10;;;;;;5032633;28;20037;-70
2022/03/09 11:04:36;;;;;;;196.73;90.43;;;9.70;60.50;;;;;;5036978;28;20041;-71
2022/03/09 11:07:02;;;;;;;265.60;144.45;;;9.80;61.40;;;;;;5061350;28;20036;-71
2022/03/09 11:09:30;;;;;;;763.05;532.78;;;9.90;61.80;;;;;;5034208;28;20025;-70
2022/03/09 11:11:56;;;;;;;85.00;64.90;;;10.10;62.60;;;;;;5044629;28;20080;-71
2022/03/09 11:14:26;;;;;;;14.73;7.70;;;10.80;61.30;;;;;;5037489;28;20697;-70
2022/03/09 11:16:54;;;;;;;9.20;5.80;;;12.00;59.40;;;;;;5036954;28;20034;-71
2022/03/09 11:19:20;;;;;;;13.02;5.97;;;14.40;54.70;;;;;;5038190;28;20521;-71
2022/03/09 11:21:47;;;;;;;15.27;5.85;;;17.30;46.80;;;;;;5040161;28;20041;-69
2022/03/09 11:24:17;;;;;;;8.18;5.45;;;18.70;40.90;;;;;;5035610;28;20047;-70
2022/03/09 11:26:55;;;;;;;10.45;6.20;;;21.30;38.00;;;;;;5038924;28;20053;-70
2022/03/09 11:29:30;;;;;;;7.57;5.25;;;22.60;34.70;;;;;;5041694;28;20039;-71
2022/03/09 11:31:56;;;;;;;8.05;4.90;;;23.80;33.30;;;;;;5038028;28;20029;-71
2022/03/09 11:34:31;;;;;;;11.10;6.10;;;24.40;32.40;;;;;;5035259;28;20028;-72
2022/03/09 11:37:00;;;;;;;9.18;5.40;;;24.90;30.00;;;;;;5038074;28;20026;-71
2022/03/09 11:39:26;;;;;;;6.75;4.78;;;24.90;31.30;;;;;;5037879;28;20056;-71
2022/03/09 11:42:20;;;;;;;7.78;5.85;;;25.00;30.10;;;;;;5038460;28;20483;-72
2022/03/09 11:44:47;;;;;;;9.07;5.80;;;24.60;30.10;;;;;;5038974;28;20399;-71
2022/03/09 11:47:13;;;;;;;8.88;5.95;;;24.40;30.80;;;;;;5041122;28;20090;-72
2022/03/09 11:49:42;;;;;;;12.02;5.78;;;24.10;30.50;;;;;;5019961;28;20108;-72
2022/03/09 11:52:13;;;;;;;9.35;5.80;;;23.20;30.10;;;;;;5040742;28;20033;-71
2022/03/09 11:54:46;;;;;;;10.88;6.57;;;22.20;30.80;;;;;;5041038;28;20036;-71
2022/03/09 11:57:14;;;;;;;12.23;6.30;;;21.00;32.50;;;;;;5040170;28;20021;-71
2022/03/09 12:00:00;;;;;;;11.27;5.72;;;19.80;34.00;;;;;;5024648;28;20032;-71
2022/03/09 12:02:55;;;;;;;10.85;5.85;;;18.60;36.80;;;;;;5038409;28;20118;-71
2022/03/09 12:05:41;;;;;;;9.45;6.45;;;17.70;37.80;;;;;;5038340;28;20057;-71
2022/03/09 12:08:11;;;;;;;11.65;6.13;;;16.80;38.30;;;;;;5045646;28;20026;-72
2022/03/09 12:10:49;;;;;;;10.15;6.22;;;16.10;39.50;;;;;;5047695;28;20398;-71
2022/03/09 12:13:27;;;;;;;9.85;6.15;;;15.60;40.10;;;;;;5039935;28;20371;-72
2022/03/09 12:16:00;;;;;;;13.48;6.03;;;15.20;40.10;;;;;;5043520;28;20033;-73
2022/03/09 12:18:38;;;;;;;12.93;6.63;;;15.00;41.20;;;;;;5042132;28;20026;-76
2022/03/09 12:21:08;;;;;;;11.57;6.45;;;14.70;41.40;;;;;;5041459;28;20036;-73
2022/03/09 12:23:35;;;;;;;9.00;6.22;;;14.50;41.70;;;;;;5044266;28;20072;-72
2022/03/09 12:26:01;;;;;;;8.07;5.80;;;14.20;42.10;;;;;;5043948;28;20072;-74
2022/03/09 12:28:34;;;;;;;14.27;6.32;;;13.80;42.20;;;;;;5049851;28;20082;-71
2022/03/09 12:31:23;;;;;;;10.23;6.00;;;13.60;42.80;;;;;;5046715;28;20060;-73
2022/03/09 12:33:51;;;;;;;9.07;5.70;;;13.30;43.50;;;;;;5046668;28;20021;-73
2022/03/09 12:36:20;;;;;;;9.93;5.88;;;13.00;44.60;;;;;;5043979;28;20036;-73
2022/03/09 12:38:49;;;;;;;10.13;5.45;;;12.80;44.90;;;;;;5041297;28;20029;-74
2022/03/09 12:41:33;;;;;;;8.65;5.97;;;12.60;45.30;;;;;;5045699;28;20558;-73
2022/03/09 12:44:10;;;;;;;11.52;5.45;;;12.40;48.00;;;;;;5044020;28;20056;-73
2022/03/09 12:46:39;;;;;;;11.10;6.00;;;12.50;50.60;;;;;;5044997;28;20036;-73
2022/03/09 12:49:10;;;;;;;9.77;6.50;;;12.50;47.70;;;;;;5048426;28;20508;-73
2022/03/09 12:51:37;;;;;;;9.93;5.72;;;12.50;46.70;;;;;;5047572;28;20029;-73
2022/03/09 12:54:04;;;;;;;8.85;5.63;;;12.30;45.90;;;;;;5043580;28;20025;-75